createdAt,value
2017-11-17T00:00:23.734Z,82.82
2017-11-17T00:01:04.263Z,82.73
2017-11-17T00:01:44.862Z,82.2
2017-11-17T00:02:25.396Z,82.58
2017-11-17T00:03:05.925Z,82.87
2017-11-17T00:03:46.474Z,82.45
2017-11-17T00:04:27.042Z,83.01
2017-11-17T00:05:07.559Z,83.11
2017-11-17T00:05:48.128Z,83.11
2017-11-17T00:06:28.612Z,83.11
2017-11-17T00:07:09.212Z,83.11
2017-11-17T00:07:49.715Z,83.11
2017-11-17T00:08:30.240Z,83.39
2017-11-17T00:09:10.797Z,83.78
2017-11-17T00:09:51.275Z,83.2
2017-11-17T00:10:31.833Z,84.06
2017-11-17T00:11:12.384Z,83.2
2017-11-17T00:11:52.896Z,83.68
2017-11-17T00:12:33.449Z,83.2
2017-11-17T00:13:14.006Z,83.2
2017-11-17T00:13:54.559Z,83.11
2017-11-17T00:14:35.104Z,83.2
2017-11-17T00:15:15.657Z,83.49
2017-11-17T00:15:56.197Z,83.59
2017-11-17T00:16:36.725Z,83.68
2017-11-17T00:17:17.242Z,83.78
2017-11-17T00:17:57.818Z,83.78
2017-11-17T00:18:38.363Z,83.49
2017-11-17T00:19:18.875Z,83.68
2017-11-17T00:19:59.549Z,83.68
2017-11-17T00:20:40.061Z,83.68
2017-11-17T00:21:20.605Z,83.82
2017-11-17T00:22:01.157Z,83.34
2017-11-17T00:22:41.659Z,83.53
2017-11-17T00:23:22.183Z,83.15
2017-11-17T00:24:02.733Z,82.68
2017-11-17T00:24:43.309Z,83.06
2017-11-17T00:25:23.839Z,83.34
2017-11-17T00:26:04.363Z,83.15
2017-11-17T00:26:44.865Z,83.44
2017-11-17T00:27:25.449Z,83.44
2017-11-17T00:28:05.980Z,83.34
2017-11-17T00:28:46.520Z,83.15
2017-11-17T00:29:27.068Z,82.96
2017-11-17T00:30:07.572Z,82.77
2017-11-17T00:30:48.105Z,83.06
2017-11-17T00:31:28.637Z,82.96
2017-11-17T00:32:09.208Z,82.68
2017-11-17T00:32:49.740Z,82.29
2017-11-17T00:33:30.293Z,82.77
2017-11-17T00:34:10.818Z,82.58
2017-11-17T00:34:51.384Z,82.58
2017-11-17T00:35:31.971Z,82.39
2017-11-17T00:36:12.503Z,82.58
2017-11-17T00:36:53.063Z,82.29
2017-11-17T00:37:33.617Z,82.77
2017-11-17T00:38:14.147Z,82.68
2017-11-17T00:38:54.680Z,82.87
2017-11-17T00:39:35.196Z,82.87
2017-11-17T00:40:15.739Z,82.39
2017-11-17T00:40:56.275Z,82.58
2017-11-17T00:41:36.815Z,82.49
2017-11-17T00:42:17.426Z,83.06
2017-11-17T00:42:57.883Z,82.39
2017-11-17T00:43:38.395Z,82.39
2017-11-17T00:44:18.924Z,82.2
2017-11-17T00:44:59.466Z,82.39
2017-11-17T00:45:40.040Z,82.39
2017-11-17T00:46:20.547Z,82.77
2017-11-17T00:47:01.119Z,83.06
2017-11-17T00:47:41.622Z,83.15
2017-11-17T00:48:22.144Z,82.73
2017-11-17T00:49:02.750Z,82.92
2017-11-17T00:49:43.300Z,84.1
2017-11-17T00:50:23.837Z,83.82
2017-11-17T00:51:04.327Z,83.3
2017-11-17T00:51:44.855Z,83.11
2017-11-17T00:52:25.376Z,83.3
2017-11-17T00:53:05.941Z,83.78
2017-11-17T00:53:46.428Z,83.91
2017-11-17T00:54:26.971Z,83.49
2017-11-17T00:55:07.489Z,83.49
2017-11-17T00:55:48.025Z,83.78
2017-11-17T00:56:28.557Z,83.78
2017-11-17T00:57:09.092Z,83.68
2017-11-17T00:57:49.626Z,83.49
2017-11-17T00:58:30.171Z,83.68
2017-11-17T00:59:10.671Z,83.3
2017-11-17T00:59:51.197Z,84.16
2017-11-17T01:00:31.735Z,83.78
2017-11-17T01:01:12.362Z,83.59
2017-11-17T01:01:52.936Z,83.87
2017-11-17T01:02:33.471Z,83.78
2017-11-17T01:03:13.973Z,83.49
2017-11-17T01:03:54.539Z,83.78
2017-11-17T01:04:35.063Z,83.68
2017-11-17T01:05:15.582Z,83.25
2017-11-17T01:05:56.105Z,83.34
2017-11-17T01:06:36.642Z,83.78
2017-11-17T01:07:17.148Z,83.59
2017-11-17T01:07:58.632Z,84.06
2017-11-17T01:08:38.322Z,83.2
2017-11-17T01:09:18.899Z,83.78
2017-11-17T01:09:59.420Z,83.78
2017-11-17T01:10:39.972Z,84.06
2017-11-17T01:11:20.455Z,83.49
2017-11-17T01:12:01.011Z,84.06
2017-11-17T01:12:41.564Z,84.25
2017-11-17T01:13:22.091Z,84.29
2017-11-17T01:14:02.584Z,83.91
2017-11-17T01:14:43.174Z,83.72
2017-11-17T01:15:23.722Z,83.78
2017-11-17T01:16:04.271Z,83.25
2017-11-17T01:16:44.734Z,84.06
2017-11-17T01:17:25.283Z,84.29
2017-11-17T01:18:05.895Z,83.59
2017-11-17T01:18:46.397Z,83.87
2017-11-17T01:19:26.947Z,83.87
2017-11-17T01:20:07.572Z,84.06
2017-11-17T01:20:48.098Z,84.44
2017-11-17T01:21:28.651Z,84.16
2017-11-17T01:22:09.233Z,83.97
2017-11-17T01:22:49.781Z,83.97
2017-11-17T01:23:30.288Z,84.25
2017-11-17T01:24:10.805Z,84.34
2017-11-17T01:24:51.348Z,84.91
2017-11-17T01:25:31.845Z,84.72
2017-11-17T01:26:12.417Z,84.63
2017-11-17T01:26:52.895Z,84.72
2017-11-17T01:27:33.481Z,84.2
2017-11-17T01:28:14.011Z,83.78
2017-11-17T01:28:54.545Z,85.11
2017-11-17T01:29:35.095Z,84.63
2017-11-17T01:30:15.617Z,84.63
2017-11-17T01:30:56.181Z,84.34
2017-11-17T01:31:36.700Z,84.25
2017-11-17T01:32:17.212Z,83.91
2017-11-17T01:32:57.759Z,84.1
2017-11-17T01:33:38.303Z,84.48
2017-11-17T01:34:18.848Z,84.58
2017-11-17T01:34:59.353Z,84.39
2017-11-17T01:35:39.925Z,83.59
2017-11-17T01:36:20.459Z,83.72
2017-11-17T01:37:01.006Z,83.87
2017-11-17T01:37:41.589Z,84.34
2017-11-17T01:38:22.099Z,84.44
2017-11-17T01:39:02.608Z,84.44
2017-11-17T01:39:43.163Z,84.53
2017-11-17T01:40:23.697Z,84.72
2017-11-17T01:41:04.268Z,84.34
2017-11-17T01:41:44.792Z,84.77
2017-11-17T01:42:25.328Z,84.39
2017-11-17T01:43:05.862Z,84.1
2017-11-17T01:43:46.455Z,83.62
2017-11-17T01:44:26.962Z,84.48
2017-11-17T01:45:07.546Z,84.58
2017-11-17T01:45:48.090Z,83.53
2017-11-17T01:46:28.604Z,84.1
2017-11-17T01:47:09.109Z,83.15
2017-11-17T01:47:49.660Z,83.91
2017-11-17T01:48:30.201Z,83.72
2017-11-17T01:49:10.711Z,84.1
2017-11-17T01:49:51.295Z,84.39
2017-11-17T01:50:31.760Z,84.63
2017-11-17T01:51:12.316Z,84.44
2017-11-17T01:51:52.832Z,84.67
2017-11-17T01:52:33.338Z,84.39
2017-11-17T01:53:13.857Z,84.48
2017-11-17T01:53:54.392Z,84.67
2017-11-17T01:54:35.016Z,84.86
2017-11-17T01:55:15.560Z,84.48
2017-11-17T01:55:56.110Z,85.15
2017-11-17T01:56:36.640Z,84.67
2017-11-17T01:57:17.227Z,85.34
2017-11-17T01:57:57.711Z,84.67
2017-11-17T01:58:38.262Z,85.53
2017-11-17T01:59:18.778Z,85.34
2017-11-17T01:59:59.275Z,84.48
2017-11-17T02:00:39.789Z,85.15
2017-11-17T02:01:20.338Z,84.58
2017-11-17T02:02:00.861Z,84.77
2017-11-17T02:02:41.393Z,84.86
2017-11-17T02:03:21.945Z,85.49
2017-11-17T02:04:02.510Z,85.62
2017-11-17T02:04:43.027Z,85.3
2017-11-17T02:05:23.598Z,85.96
2017-11-17T02:06:04.143Z,85.68
2017-11-17T02:06:44.686Z,85.58
2017-11-17T02:07:25.262Z,85.49
2017-11-17T02:08:05.793Z,86.15
2017-11-17T02:08:46.321Z,85.39
2017-11-17T02:09:26.845Z,85.49
2017-11-17T02:10:07.383Z,85.72
2017-11-17T02:10:47.973Z,85.43
2017-11-17T02:11:28.535Z,85.24
2017-11-17T02:12:09.145Z,85.05
2017-11-17T02:12:49.689Z,85.24
2017-11-17T02:13:30.232Z,85.15
2017-11-17T02:14:10.712Z,85.34
2017-11-17T02:14:51.232Z,85.15
2017-11-17T02:15:31.837Z,85.15
2017-11-17T02:16:12.327Z,84.77
2017-11-17T02:16:52.889Z,85.05
2017-11-17T02:17:33.480Z,84.95
2017-11-17T02:18:14.017Z,84.86
2017-11-17T02:18:54.575Z,84.77
2017-11-17T02:19:35.101Z,84.48
2017-11-17T02:20:15.640Z,84.67
2017-11-17T02:20:56.188Z,84.67
2017-11-17T02:21:36.711Z,84.58
2017-11-17T02:22:17.228Z,85.15
2017-11-17T02:22:57.763Z,85.15
2017-11-17T02:23:38.279Z,84.67
2017-11-17T02:24:18.824Z,84.67
2017-11-17T02:24:59.304Z,84.95
2017-11-17T02:25:39.882Z,84.77
2017-11-17T02:26:20.370Z,85.34
2017-11-17T02:27:00.919Z,85.15
2017-11-17T02:27:41.465Z,85.15
2017-11-17T02:28:21.991Z,85.34
2017-11-17T02:29:02.508Z,85.43
2017-11-17T02:29:43.081Z,84.77
2017-11-17T02:30:23.620Z,84.67
2017-11-17T02:31:04.152Z,84.86
2017-11-17T02:31:44.690Z,84.39
2017-11-17T02:32:25.236Z,84.29
2017-11-17T02:33:05.748Z,84.77
2017-11-17T02:33:46.515Z,85.43
2017-11-17T02:34:26.971Z,85.24
2017-11-17T02:35:07.484Z,85.72
2017-11-17T02:35:48.050Z,85.43
2017-11-17T02:36:28.549Z,85.53
2017-11-17T02:37:09.087Z,85.53
2017-11-17T02:37:49.672Z,85.05
2017-11-17T02:38:30.204Z,85.15
2017-11-17T02:39:10.752Z,84.95
2017-11-17T02:39:51.223Z,85.72
2017-11-17T02:40:31.764Z,85.49
2017-11-17T02:41:12.331Z,85.3
2017-11-17T02:41:52.896Z,86.1
2017-11-17T02:42:33.428Z,86
2017-11-17T02:43:13.966Z,86.38
2017-11-17T02:43:54.501Z,85.96
2017-11-17T02:44:35.052Z,86.38
2017-11-17T02:45:15.586Z,86.19
2017-11-17T02:45:56.127Z,86.1
2017-11-17T02:46:36.701Z,85.91
2017-11-17T02:47:17.272Z,86.19
2017-11-17T02:47:57.824Z,85.91
2017-11-17T02:48:38.343Z,86
2017-11-17T02:49:18.845Z,85.81
2017-11-17T02:49:59.388Z,85.53
2017-11-17T02:50:39.905Z,85.53
2017-11-17T02:51:20.445Z,85.53
2017-11-17T02:52:01.027Z,85.53
2017-11-17T02:52:41.522Z,84.86
2017-11-17T02:53:22.047Z,85.43
2017-11-17T02:54:02.666Z,85.24
2017-11-17T02:54:43.196Z,84.95
2017-11-17T02:55:23.667Z,84.86
2017-11-17T02:56:04.236Z,85.43
2017-11-17T02:56:44.769Z,85.15
2017-11-17T02:57:25.324Z,84.48
2017-11-17T02:58:05.871Z,85.43
2017-11-17T02:58:46.432Z,85.34
2017-11-17T02:59:26.939Z,84.67
2017-11-17T03:00:07.453Z,84.67
2017-11-17T03:00:48.002Z,85.43
2017-11-17T03:01:28.537Z,85.34
2017-11-17T03:02:09.063Z,84.95
2017-11-17T03:02:49.583Z,84.95
2017-11-17T03:03:30.158Z,84.95
2017-11-17T03:04:10.662Z,85.05
2017-11-17T03:04:51.185Z,85.34
2017-11-17T03:05:31.717Z,84.77
2017-11-17T03:06:12.220Z,84.77
2017-11-17T03:06:52.740Z,84.77
2017-11-17T03:07:33.285Z,85.43
2017-11-17T03:08:13.829Z,84.95
2017-11-17T03:08:54.372Z,84.77
2017-11-17T03:09:34.911Z,85.43
2017-11-17T03:10:15.462Z,85.62
2017-11-17T03:10:55.939Z,84.67
2017-11-17T03:11:36.471Z,84.58
2017-11-17T03:12:17.020Z,84.29
2017-11-17T03:12:57.564Z,84.86
2017-11-17T03:13:38.069Z,84.77
2017-11-17T03:14:18.605Z,84.67
2017-11-17T03:14:59.136Z,84.77
2017-11-17T03:15:39.665Z,84.77
2017-11-17T03:16:20.233Z,84.77
2017-11-17T03:17:00.748Z,84.86
2017-11-17T03:17:41.293Z,85.15
2017-11-17T03:18:21.858Z,84.58
2017-11-17T03:19:02.406Z,84.58
2017-11-17T03:19:42.942Z,84.67
2017-11-17T03:20:23.449Z,83.91
2017-11-17T03:21:04.012Z,84.48
2017-11-17T03:21:44.556Z,84.1
2017-11-17T03:22:25.105Z,84.1
2017-11-17T03:23:05.636Z,84.48
2017-11-17T03:23:46.174Z,84.86
2017-11-17T03:24:26.692Z,84.39
2017-11-17T03:25:07.242Z,84.39
2017-11-17T03:25:47.799Z,83.91
2017-11-17T03:26:28.289Z,84.29
2017-11-17T03:27:08.904Z,84.01
2017-11-17T03:27:49.458Z,84.1
2017-11-17T03:28:30.848Z,84.58
2017-11-17T03:29:11.356Z,84.48
2017-11-17T03:29:51.944Z,84.29
2017-11-17T03:30:32.516Z,84.39
2017-11-17T03:31:12.986Z,84.67
2017-11-17T03:31:53.516Z,84.67
2017-11-17T03:32:34.061Z,84.58
2017-11-17T03:33:14.656Z,84.86
2017-11-17T03:33:55.123Z,84.77
2017-11-17T03:34:35.688Z,85.05
2017-11-17T03:35:16.239Z,84.77
2017-11-17T03:35:56.725Z,84.77
2017-11-17T03:36:37.268Z,85.05
2017-11-17T03:37:17.806Z,85.15
2017-11-17T03:37:58.339Z,84.95
2017-11-17T03:38:38.868Z,85.15
2017-11-17T03:39:19.412Z,85.53
2017-11-17T03:39:59.911Z,84.77
2017-11-17T03:40:40.471Z,85.53
2017-11-17T03:41:21.008Z,85.49
2017-11-17T03:42:01.488Z,86.1
2017-11-17T03:42:42.006Z,86
2017-11-17T03:43:22.532Z,85.72
2017-11-17T03:44:03.090Z,85.15
2017-11-17T03:44:43.596Z,84.77
2017-11-17T03:45:24.137Z,84.86
2017-11-17T03:46:04.702Z,84.48
2017-11-17T03:46:45.194Z,84.77
2017-11-17T03:47:25.746Z,84.67
2017-11-17T03:48:06.250Z,84.67
2017-11-17T03:48:46.810Z,84.77
2017-11-17T03:49:27.309Z,84.86
2017-11-17T03:50:07.824Z,84.77
2017-11-17T03:50:48.388Z,84.48
2017-11-17T03:51:28.911Z,84.48
2017-11-17T03:52:09.444Z,84.1
2017-11-17T03:52:50.058Z,84.01
2017-11-17T03:53:30.531Z,83.91
2017-11-17T03:54:11.084Z,84.1
2017-11-17T03:54:51.594Z,83.91
2017-11-17T03:55:32.128Z,83.15
2017-11-17T03:56:12.734Z,84.1
2017-11-17T03:56:53.212Z,84.48
2017-11-17T03:57:33.720Z,84.77
2017-11-17T03:58:14.265Z,84.77
2017-11-17T03:58:54.808Z,85.53
2017-11-17T03:59:35.370Z,85.34
2017-11-17T04:00:15.835Z,84.77
2017-11-17T04:00:56.402Z,84.95
2017-11-17T04:01:36.929Z,84.77
2017-11-17T04:02:17.470Z,85.15
2017-11-17T04:02:57.998Z,85.34
2017-11-17T04:03:38.534Z,85.81
2017-11-17T04:04:19.075Z,86.38
2017-11-17T04:04:59.599Z,86.29
2017-11-17T04:05:40.198Z,86.76
2017-11-17T04:06:20.781Z,87.34
2017-11-17T04:07:01.318Z,87.24
2017-11-17T04:07:41.831Z,86.95
2017-11-17T04:08:22.366Z,87.34
2017-11-17T04:09:02.921Z,87.43
2017-11-17T04:09:43.438Z,87.9
2017-11-17T04:10:24.091Z,87.81
2017-11-17T04:11:04.669Z,87.9
2017-11-17T04:11:45.233Z,88.62
2017-11-17T04:12:25.804Z,88.62
2017-11-17T04:13:06.354Z,88.81
2017-11-17T04:13:46.867Z,89.28
2017-11-17T04:14:27.380Z,89
2017-11-17T04:15:07.911Z,89.42
2017-11-17T04:15:48.445Z,88.81
2017-11-17T04:16:28.983Z,88.71
2017-11-17T04:17:09.536Z,88.71
2017-11-17T04:17:50.014Z,89.76
2017-11-17T04:18:30.569Z,89.67
2017-11-17T04:19:11.129Z,89.71
2017-11-17T04:19:51.679Z,88.81
2017-11-17T04:20:32.206Z,89.09
2017-11-17T04:21:12.747Z,89.47
2017-11-17T04:21:53.273Z,89.28
2017-11-17T04:22:33.826Z,89.38
2017-11-17T04:23:14.357Z,89.38
2017-11-17T04:23:54.921Z,89.67
2017-11-17T04:24:35.427Z,90.14
2017-11-17T04:25:15.968Z,90.61
2017-11-17T04:25:56.525Z,90.61
2017-11-17T04:26:37.016Z,90.42
2017-11-17T04:27:17.554Z,90.85
2017-11-17T04:27:58.100Z,90.19
2017-11-17T04:28:38.674Z,90
2017-11-17T04:29:19.140Z,90.09
2017-11-17T04:29:59.651Z,90.19
2017-11-17T04:30:40.210Z,90
2017-11-17T04:31:20.686Z,90
2017-11-17T04:32:01.269Z,89.42
2017-11-17T04:32:41.852Z,89.61
2017-11-17T04:33:22.407Z,89.42
2017-11-17T04:34:02.909Z,89.04
2017-11-17T04:34:43.475Z,89.14
2017-11-17T04:35:23.964Z,89.19
2017-11-17T04:36:04.486Z,89.76
2017-11-17T04:36:45.021Z,89.76
2017-11-17T04:37:25.573Z,89.95
2017-11-17T04:38:06.061Z,89.57
2017-11-17T04:38:46.589Z,89.67
2017-11-17T04:39:27.096Z,89.95
2017-11-17T04:40:07.665Z,90.52
2017-11-17T04:40:48.166Z,90.14
2017-11-17T04:41:28.681Z,90.14
2017-11-17T04:42:09.211Z,90.42
2017-11-17T04:42:49.743Z,89.76
2017-11-17T04:43:30.313Z,89.52
2017-11-17T04:44:10.817Z,89.95
2017-11-17T04:44:51.332Z,89.47
2017-11-17T04:45:31.910Z,89.67
2017-11-17T04:46:12.438Z,90.05
2017-11-17T04:46:53.005Z,90.33
2017-11-17T04:47:33.524Z,90.42
2017-11-17T04:48:14.044Z,90.14
2017-11-17T04:48:54.663Z,90.33
2017-11-17T04:49:35.212Z,90.33
2017-11-17T04:50:15.762Z,90.33
2017-11-17T04:50:56.316Z,89.76
2017-11-17T04:51:36.806Z,89.86
2017-11-17T04:52:17.338Z,89.95
2017-11-17T04:52:57.935Z,89.57
2017-11-17T04:53:38.438Z,89.67
2017-11-17T04:54:18.968Z,89.76
2017-11-17T04:54:59.510Z,89.67
2017-11-17T04:55:40.067Z,89.76
2017-11-17T04:56:20.699Z,89.95
2017-11-17T04:57:01.166Z,89.76
2017-11-17T04:57:41.727Z,89.76
2017-11-17T04:58:22.251Z,90.61
2017-11-17T04:59:02.805Z,90.42
2017-11-17T04:59:43.391Z,90.14
2017-11-17T05:00:23.955Z,89.57
2017-11-17T05:01:04.443Z,90.23
2017-11-17T05:01:44.994Z,89.95
2017-11-17T05:02:25.524Z,90.05
2017-11-17T05:03:06.038Z,90.05
2017-11-17T05:03:46.577Z,89.95
2017-11-17T05:04:27.107Z,90.33
2017-11-17T05:05:07.615Z,89.67
2017-11-17T05:05:48.174Z,89.57
2017-11-17T05:06:28.829Z,89.95
2017-11-17T05:07:09.336Z,89.95
2017-11-17T05:07:49.848Z,90.14
2017-11-17T05:08:30.416Z,89.76
2017-11-17T05:09:10.934Z,90.33
2017-11-17T05:09:51.481Z,89.86
2017-11-17T05:10:32.002Z,89.57
2017-11-17T05:11:12.771Z,89.76
2017-11-17T05:11:53.290Z,89.57
2017-11-17T05:12:33.836Z,89.42
2017-11-17T05:13:14.384Z,89.67
2017-11-17T05:13:54.977Z,89.23
2017-11-17T05:14:35.475Z,89.38
2017-11-17T05:15:16.013Z,89.09
2017-11-17T05:15:56.592Z,89.95
2017-11-17T05:16:37.105Z,89.47
2017-11-17T05:17:17.652Z,89.47
2017-11-17T05:17:58.167Z,90.05
2017-11-17T05:18:38.699Z,89.95
2017-11-17T05:19:19.243Z,89.95
2017-11-17T05:19:59.845Z,89.95
2017-11-17T05:20:40.347Z,89.76
2017-11-17T05:21:20.910Z,90
2017-11-17T05:22:01.568Z,90
2017-11-17T05:22:42.085Z,89.8
2017-11-17T05:23:22.594Z,89.42
2017-11-17T05:24:03.152Z,88.85
2017-11-17T05:24:43.665Z,89.33
2017-11-17T05:25:24.186Z,89.09
2017-11-17T05:26:04.752Z,89.33
2017-11-17T05:26:45.328Z,89.14
2017-11-17T05:27:25.859Z,89.04
2017-11-17T05:28:06.336Z,89.04
2017-11-17T05:28:48.019Z,88.95
2017-11-17T05:29:28.458Z,88.47
2017-11-17T05:30:08.974Z,88.57
2017-11-17T05:30:49.498Z,88.67
2017-11-17T05:31:30.094Z,88.76
2017-11-17T05:32:10.613Z,88.57
2017-11-17T05:32:51.177Z,88.38
2017-11-17T05:33:31.989Z,88.09
2017-11-17T05:34:12.537Z,88.28
2017-11-17T05:34:53.076Z,88.09
2017-11-17T05:35:33.582Z,88.19
2017-11-17T05:36:14.089Z,88.47
2017-11-17T05:36:54.652Z,88.09
2017-11-17T05:37:35.208Z,88.19
2017-11-17T05:38:15.760Z,87.62
2017-11-17T05:38:56.363Z,87.62
2017-11-17T05:39:36.957Z,88.28
2017-11-17T05:40:17.433Z,87.71
2017-11-17T05:40:57.954Z,87.52
2017-11-17T05:41:38.589Z,87.43
2017-11-17T05:42:19.152Z,87.34
2017-11-17T05:42:59.673Z,87.34
2017-11-17T05:43:40.221Z,87.24
2017-11-17T05:44:21.664Z,87.34
2017-11-17T05:45:02.225Z,87.52
2017-11-17T05:45:42.722Z,87.52
2017-11-17T05:46:23.301Z,87.43
2017-11-17T05:47:03.862Z,88.09
2017-11-17T05:47:44.353Z,88.76
2017-11-17T05:48:24.927Z,88.57
2017-11-17T05:49:05.469Z,88.67
2017-11-17T05:49:46.034Z,88.67
2017-11-17T05:50:26.570Z,88.76
2017-11-17T05:51:07.169Z,88.38
2017-11-17T05:51:47.675Z,88.47
2017-11-17T05:52:28.235Z,89.23
2017-11-17T05:53:08.780Z,89.04
2017-11-17T05:53:49.328Z,89.23
2017-11-17T05:54:29.877Z,88.85
2017-11-17T05:55:10.380Z,88.38
2017-11-17T05:55:50.945Z,88.19
2017-11-17T05:56:31.544Z,88.38
2017-11-17T05:57:12.087Z,88.38
2017-11-17T05:57:52.600Z,88.09
2017-11-17T05:58:33.149Z,88.67
2017-11-17T05:59:13.649Z,88.67
2017-11-17T05:59:54.196Z,88.38
2017-11-17T06:00:34.719Z,88.76
2017-11-17T06:01:15.224Z,88.76
2017-11-17T06:01:55.774Z,88.67
2017-11-17T06:02:36.350Z,88.47
2017-11-17T06:03:16.905Z,88.57
2017-11-17T06:03:57.471Z,88.85
2017-11-17T06:04:37.994Z,88.85
2017-11-17T06:05:18.499Z,88.67
2017-11-17T06:05:59.198Z,88.57
2017-11-17T06:06:39.742Z,88.28
2017-11-17T06:07:20.335Z,88.57
2017-11-17T06:08:00.914Z,88.76
2017-11-17T06:08:41.462Z,88.57
2017-11-17T06:09:21.976Z,88.67
2017-11-17T06:10:02.580Z,88.47
2017-11-17T06:10:43.081Z,88.67
2017-11-17T06:11:23.608Z,88.57
2017-11-17T06:12:04.191Z,88.28
2017-11-17T06:12:44.675Z,88.67
2017-11-17T06:13:25.219Z,88.57
2017-11-17T06:14:05.769Z,89.04
2017-11-17T06:14:46.308Z,88.76
2017-11-17T06:15:26.820Z,89.33
2017-11-17T06:16:07.387Z,89.33
2017-11-17T06:16:47.892Z,89.33
2017-11-17T06:17:28.450Z,89.23
2017-11-17T06:18:09.035Z,88.67
2017-11-17T06:18:49.591Z,89.8
2017-11-17T06:19:30.194Z,89.52
2017-11-17T06:20:11.007Z,89.71
2017-11-17T06:20:51.563Z,89.9
2017-11-17T06:21:32.095Z,90.09
2017-11-17T06:22:12.644Z,90.19
2017-11-17T06:22:53.214Z,90.28
2017-11-17T06:23:33.759Z,90.61
2017-11-17T06:24:14.296Z,90.23
2017-11-17T06:24:54.809Z,90.71
2017-11-17T06:25:35.342Z,90.8
2017-11-17T06:26:15.873Z,91.09
2017-11-17T06:26:56.440Z,91.09
2017-11-17T06:27:36.962Z,91.47
2017-11-17T06:28:17.544Z,91.38
2017-11-17T06:28:58.068Z,92.08
2017-11-17T06:29:38.599Z,91.71
2017-11-17T06:30:19.153Z,91.56
2017-11-17T06:30:59.733Z,91.56
2017-11-17T06:31:40.243Z,91.66
2017-11-17T06:32:20.795Z,91.94
2017-11-17T06:33:01.322Z,92.51
2017-11-17T06:33:41.897Z,93.18
2017-11-17T06:34:22.417Z,94.08
2017-11-17T06:35:02.966Z,94.18
2017-11-17T06:35:43.707Z,93.27
2017-11-17T06:36:24.293Z,92.23
2017-11-17T06:37:04.815Z,92.71
2017-11-17T06:39:18.555Z,92.99
2017-11-17T06:39:59.077Z,93.56
2017-11-17T06:40:39.597Z,94.13
2017-11-17T06:41:20.199Z,94.42
2017-11-17T06:42:00.729Z,94.6
2017-11-17T06:42:41.338Z,94.98
2017-11-17T06:43:21.872Z,95.79
2017-11-17T06:44:02.391Z,96.08
2017-11-17T06:44:42.993Z,95.41
2017-11-17T06:45:23.496Z,96.17
2017-11-17T06:46:04.040Z,95.32
2017-11-17T06:46:44.612Z,95.6
2017-11-17T06:47:25.119Z,95.51
2017-11-17T06:48:05.680Z,94.84
2017-11-17T06:48:46.191Z,95.03
2017-11-17T06:49:26.754Z,94.56
2017-11-17T06:50:07.359Z,95.12
2017-11-17T06:50:47.953Z,94.74
2017-11-17T06:51:28.444Z,94.46
2017-11-17T06:52:09.057Z,93.89
2017-11-17T06:52:49.657Z,92.18
2017-11-17T06:53:30.243Z,93.41
2017-11-17T06:54:10.792Z,93.6
2017-11-17T06:54:51.308Z,93.23
2017-11-17T06:55:32.058Z,93.51
2017-11-17T06:56:12.581Z,94.27
2017-11-17T06:56:53.120Z,94.08
2017-11-17T06:57:33.645Z,93.89
2017-11-17T06:58:14.993Z,94.13
2017-11-17T06:58:56.396Z,95.36
2017-11-17T06:59:37.242Z,94.32
2017-11-17T07:00:18.134Z,92.46
2017-11-17T07:00:59.732Z,92.85
2017-11-17T07:01:40.287Z,93.32
2017-11-17T07:02:20.904Z,94.08
2017-11-17T07:03:01.456Z,93.94
2017-11-17T07:03:42.408Z,93.84
2017-11-17T07:04:23.249Z,91.8
2017-11-17T07:05:10.888Z,93.13
2017-11-17T07:05:51.590Z,93.08
2017-11-17T07:06:36.179Z,93.46
2017-11-17T07:35:57.155Z,94.27
2017-11-17T07:36:37.685Z,98.83
2017-11-17T07:37:18.403Z,99.99
2017-11-17T07:37:58.846Z,99.99
2017-11-17T07:38:39.480Z,99.99
2017-11-17T07:39:20.005Z,99.99
2017-11-17T07:40:00.817Z,99.99
2017-11-17T07:40:41.409Z,99.99
2017-11-17T07:41:22.083Z,99.99
2017-11-17T07:42:02.944Z,99.99
2017-11-17T07:42:43.432Z,99.99
2017-11-17T07:43:24.024Z,99.99
2017-11-17T07:44:04.536Z,99.99
2017-11-17T07:44:45.106Z,99.99
2017-11-17T07:45:25.896Z,99.99
2017-11-17T07:46:06.513Z,99.99
2017-11-17T07:46:47.011Z,99.99
2017-11-17T07:47:27.532Z,99.99
2017-11-17T07:48:08.083Z,99.99
2017-11-17T07:48:48.816Z,99.99
2017-11-17T07:49:29.226Z,99.99
2017-11-17T07:50:12.156Z,99.99
2017-11-17T07:50:51.482Z,99.99
2017-11-17T07:51:33.251Z,99.99
2017-11-17T07:52:13.794Z,99.99
2017-11-17T07:52:54.556Z,99.99
2017-11-17T07:53:35.161Z,99.99
2017-11-17T07:54:15.772Z,99.99
2017-11-17T07:54:56.558Z,99.99
2017-11-17T07:55:38.162Z,99.99
2017-11-17T07:56:18.737Z,99.99
2017-11-17T07:56:59.368Z,99.99
2017-11-17T07:57:40.467Z,99.99
2017-11-17T07:58:21.148Z,99.99
2017-11-17T07:59:02.324Z,99.99
2017-11-17T07:59:43.093Z,99.99
2017-11-17T08:00:26.274Z,99.99
2017-11-17T08:01:07.130Z,97.83
2017-11-17T08:01:47.636Z,98.6
2017-11-17T08:02:28.177Z,98.41
2017-11-17T08:03:09.013Z,95.08
2017-11-17T08:03:50.847Z,95.17
2017-11-17T08:04:30.874Z,96.79
2017-11-17T08:05:11.656Z,95.46
2017-11-17T08:05:52.363Z,95.94
2017-11-17T08:06:32.911Z,95.65
2017-11-17T08:07:13.469Z,95.56
2017-11-17T08:07:54.026Z,95.36
2017-11-17T08:08:36.898Z,94.03
2017-11-17T08:09:17.442Z,93.84
2017-11-17T08:09:58.031Z,93.94
2017-11-17T08:10:45.486Z,94.79
2017-11-17T08:11:26.004Z,96.5
2017-11-17T08:12:07.601Z,95.94
2017-11-17T08:12:48.077Z,94.42
2017-11-17T08:13:28.670Z,94.79
2017-11-17T08:14:09.198Z,94.89
2017-11-17T08:14:49.769Z,95.94
2017-11-17T08:15:30.343Z,97.93
2017-11-17T08:16:10.924Z,98.31
2017-11-17T08:16:51.546Z,97.36
2017-11-17T08:17:32.030Z,97.93
2017-11-17T08:18:12.702Z,97.45
2017-11-17T08:18:53.486Z,97.45
2017-11-17T08:19:33.971Z,95.46
2017-11-17T08:20:14.498Z,99.99
2017-11-17T08:20:55.062Z,97.36
2017-11-17T08:21:35.535Z,99.99
2017-11-17T08:22:16.205Z,99.99
2017-11-17T08:22:57.123Z,99.99
2017-11-17T08:23:37.784Z,99.99
2017-11-17T08:24:18.441Z,99.99
2017-11-17T08:24:58.993Z,99.99
2017-11-17T08:25:39.643Z,99.99
2017-11-17T08:26:20.272Z,99.99
2017-11-17T08:27:00.818Z,99.99
2017-11-17T08:27:41.373Z,99.99
2017-11-17T08:28:23.592Z,99.99
2017-11-17T08:29:04.366Z,99.99
2017-11-17T08:29:44.845Z,99.99
2017-11-17T08:30:25.474Z,99.99
2017-11-17T08:31:05.939Z,99.99
2017-11-17T08:31:46.550Z,99.99
2017-11-17T08:32:27.069Z,99.99
2017-11-17T08:33:08.024Z,99.99
2017-11-17T08:33:48.620Z,99.99
2017-11-17T08:34:29.648Z,99.99
2017-11-17T08:35:10.140Z,99.99
2017-11-17T08:35:50.883Z,99.99
2017-11-17T08:36:31.309Z,99.99
2017-11-17T08:37:11.866Z,99.99
2017-11-17T08:37:53.084Z,99.99
2017-11-17T08:38:33.696Z,99.99
2017-11-17T08:39:14.461Z,99.99
2017-11-17T08:39:55.035Z,99.99
2017-11-17T08:40:35.651Z,99.99
2017-11-17T08:41:16.305Z,99.99
2017-11-17T08:41:56.946Z,99.99
2017-11-17T08:42:37.490Z,99.99
2017-11-17T08:43:18.203Z,99.99
2017-11-17T08:43:58.931Z,99.99
2017-11-17T08:44:39.516Z,99.99
2017-11-17T08:45:20.219Z,99.99
2017-11-17T08:46:00.864Z,99.99
2017-11-17T08:46:41.347Z,99.99
2017-11-17T08:47:22.014Z,99.99
2017-11-17T08:48:02.498Z,99.99
2017-11-17T08:48:44.538Z,99.99
2017-11-17T08:49:25.989Z,99.99
2017-11-17T08:50:06.178Z,99.99
2017-11-17T08:50:47.306Z,99.99
2017-11-17T08:51:27.964Z,99.99
2017-11-17T08:52:08.607Z,99.99
2017-11-17T08:52:49.041Z,99.99
2017-11-17T08:53:30.140Z,99.99
2017-11-17T08:54:10.771Z,99.99
2017-11-17T08:54:51.410Z,99.99
2017-11-17T08:55:32.817Z,98.17
2017-11-17T08:56:13.362Z,95.32
2017-11-17T08:56:54.330Z,95.12
2017-11-17T08:57:35.392Z,96.46
2017-11-17T08:58:16.437Z,97.6
2017-11-17T08:58:57.784Z,97.98
2017-11-17T08:59:38.543Z,96.26
2017-11-17T09:00:19.555Z,97.41
2017-11-17T09:01:00.231Z,96.36
2017-11-17T09:01:41.605Z,94.84
2017-11-17T09:02:22.539Z,95.7
2017-11-17T09:03:03.379Z,94.56
2017-11-17T09:03:43.840Z,93.79
2017-11-17T09:04:24.463Z,92.08
2017-11-17T09:05:05.105Z,92.08
2017-11-17T09:05:45.712Z,92.18
2017-11-17T09:06:26.148Z,92.94
2017-11-17T09:07:07.150Z,94.46
2017-11-17T09:07:48.449Z,95.89
2017-11-17T09:08:29.306Z,96.36
2017-11-17T09:09:10.872Z,96.46
2017-11-17T09:09:54.574Z,96.36
2017-11-17T09:10:35.198Z,96.55
2017-11-17T09:11:15.836Z,98.6
2017-11-17T09:11:56.411Z,99.93
2017-11-17T09:12:37.552Z,99.99
2017-11-17T09:13:18.250Z,99.99
2017-11-17T09:13:58.967Z,99.99
2017-11-17T09:14:39.513Z,99.99